createdAt,value
2022-07-29T02:37:34.604Z,101189.19
2022-07-29T02:44:53.678Z,101196.75
2022-07-29T02:52:31.539Z,101197.59
2022-07-29T02:56:33.399Z,101200.16
2022-07-29T02:59:34.818Z,101214.34
2022-07-29T03:02:26.982Z,101205.31
2022-07-29T03:05:55.753Z,101202.78
2022-07-29T03:09:32.857Z,101197.50
2022-07-29T03:12:46.071Z,101188.31
2022-07-29T03:15:14.779Z,101186.41
2022-07-29T03:18:19.537Z,101183.84
2022-07-29T03:20:52.827Z,101185.81
2022-07-29T03:24:31.242Z,101182.81
2022-07-29T03:26:58.875Z,101190.75
2022-07-29T03:36:31.162Z,101183.84
2022-07-29T03:37:15.129Z,101184.66
2022-07-29T03:37:58.179Z,101178.97
2022-07-29T03:41:04.444Z,101168.59
2022-07-29T03:47:16.721Z,101172.78
2022-07-29T03:49:47.403Z,101171.56
2022-07-29T03:54:21.950Z,101169.88
2022-07-29T03:55:57.985Z,101177.06
2022-07-29T03:58:27.490Z,101168.16
2022-07-29T04:01:31.562Z,101160.50
2022-07-29T04:04:03.670Z,101167.88
2022-07-29T04:06:44.818Z,101161.03
2022-07-29T04:09:24.869Z,101156.88
2022-07-29T04:12:55.086Z,101153.00
2022-07-29T04:15:22.518Z,101163.25
2022-07-29T04:18:05.215Z,101161.13
2022-07-29T04:20:52.062Z,101165.22
2022-07-29T04:23:24.731Z,101167.84
2022-07-29T04:25:51.735Z,101164.81
2022-07-29T04:29:09.162Z,101166.31
2022-07-29T04:36:18.834Z,101182.69
2022-07-29T04:39:22.998Z,101176.06
2022-07-29T04:45:09.107Z,101170.66
2022-07-29T04:48:12.586Z,101171.78
2022-07-29T04:51:21.873Z,101174.56
2022-07-29T04:53:48.900Z,101169.09
2022-07-29T04:56:15.956Z,101177.66
2022-07-29T04:58:59.226Z,101173.97
2022-07-29T05:01:46.810Z,101172.97
2022-07-29T05:09:06.997Z,101184.53
2022-07-29T05:12:38.518Z,101188.25
2022-07-29T05:15:07.044Z,101178.50
2022-07-29T05:17:34.701Z,101184.88
2022-07-29T05:20:03.044Z,101173.47
2022-07-29T05:22:30.110Z,101174.44
2022-07-29T05:25:15.467Z,101182.47
2022-07-29T05:28:04.160Z,101173.88
2022-07-29T05:30:31.696Z,101170.59
2022-07-29T05:32:59.003Z,101171.97
2022-07-29T05:35:31.691Z,101166.75
2022-07-29T05:37:58.968Z,101164.16
2022-07-29T05:40:26.246Z,101170.38
2022-07-29T05:43:18.092Z,101154.75
2022-07-29T05:46:15.226Z,101164.53
2022-07-29T05:48:45.647Z,101156.97
2022-07-29T05:51:13.179Z,101156.97
2022-07-29T05:53:40.478Z,101161.91
2022-07-29T05:56:08.262Z,101158.34
2022-07-29T05:58:35.313Z,101153.34
2022-07-29T06:01:10.795Z,101157.22
2022-07-29T06:06:48.905Z,101157.53
2022-07-29T06:09:26.806Z,101168.41
2022-07-29T06:12:10.279Z,101170.84
2022-07-29T06:14:39.295Z,101173.84
2022-07-29T06:17:24.306Z,101172.03
2022-07-29T06:20:00.366Z,101175.69
2022-07-29T06:22:27.781Z,101170.50
2022-07-29T06:25:22.970Z,101172.34
2022-07-29T06:27:56.373Z,101170.78
2022-07-29T06:30:55.790Z,101168.66
2022-07-29T06:36:10.505Z,101168.53
2022-07-29T06:39:24.143Z,101168.19
2022-07-29T06:41:52.139Z,101154.00
2022-07-29T06:44:35.293Z,101167.75
2022-07-29T06:47:33.896Z,101163.13
2022-07-29T06:50:01.110Z,101163.97
2022-07-29T06:52:28.378Z,101165.19
2022-07-29T06:54:56.480Z,101159.53
2022-07-29T06:57:26.205Z,101158.56
2022-07-29T07:00:00.340Z,101154.19
2022-07-29T07:05:44.389Z,101161.19
2022-07-29T07:08:13.044Z,101163.69
2022-07-29T07:10:40.993Z,101163.69
2022-07-29T07:13:09.832Z,101168.13
2022-07-29T07:15:39.430Z,101167.78
2022-07-29T07:18:08.418Z,101167.69
2022-07-29T07:23:17.846Z,101172.03
2022-07-29T07:26:13.184Z,101172.53
2022-07-29T07:28:40.236Z,101180.16
2022-07-29T07:31:07.286Z,101167.41
2022-07-29T07:33:46.207Z,101169.66
2022-07-29T07:36:13.235Z,101175.16
2022-07-29T07:38:46.692Z,101167.28
2022-07-29T07:41:17.352Z,101171.75
2022-07-29T07:43:55.130Z,101168.38
2022-07-29T07:46:55.884Z,101168.38
2022-07-29T07:49:23.272Z,101170.63
2022-07-29T07:53:01.665Z,101168.47
2022-07-29T07:55:29.517Z,101161.69
2022-07-29T07:58:07.350Z,101159.28
2022-07-29T08:01:26.211Z,101150.41
2022-07-29T08:03:53.756Z,101143.59
2022-07-29T08:06:32.452Z,101158.25
2022-07-29T08:09:26.554Z,101156.66
2022-07-29T08:12:00.262Z,101163.75
2022-07-29T08:14:34.512Z,101154.63
2022-07-29T08:17:05.008Z,101155.16
2022-07-29T08:19:34.894Z,101145.03
2022-07-29T08:22:02.421Z,101138.50
2022-07-29T08:24:46.462Z,101146.31
2022-07-29T08:27:42.403Z,101141.59
2022-07-29T08:30:11.548Z,101139.69
2022-07-29T08:32:54.564Z,101132.31
2022-07-29T08:35:24.250Z,101141.41
2022-07-29T08:37:52.635Z,101137.88
2022-07-29T08:40:33.453Z,101132.75
2022-07-29T08:43:08.107Z,101132.69
2022-07-29T08:45:52.191Z,101138.78
2022-07-29T08:48:47.278Z,101130.94
2022-07-29T08:51:49.612Z,101130.84
2022-07-29T08:54:19.525Z,101131.72
2022-07-29T08:56:51.373Z,101121.75
2022-07-29T08:59:22.930Z,101125.88
2022-07-29T09:01:53.766Z,101119.44
2022-07-29T09:04:21.957Z,101111.47
2022-07-29T09:06:54.103Z,101114.75
2022-07-29T09:09:21.859Z,101106.91
2022-07-29T09:11:49.381Z,101110.59
2022-07-29T09:14:16.414Z,101109.50
2022-07-29T09:16:54.031Z,101122.06
2022-07-29T09:19:36.891Z,101121.72
2022-07-29T09:22:07.698Z,101121.94
2022-07-29T09:24:48.515Z,101105.38
2022-07-29T09:27:18.394Z,101118.22
2022-07-29T09:29:45.552Z,101107.25
2022-07-29T09:32:13.029Z,101108.63
2022-07-29T09:34:40.324Z,101111.34
2022-07-29T09:37:07.742Z,101101.28
2022-07-29T09:39:49.350Z,101116.44
2022-07-29T09:42:30.839Z,101102.25
2022-07-29T09:44:58.006Z,101098.91
2022-07-29T09:47:49.686Z,101098.09
2022-07-29T09:50:24.805Z,101102.53
2022-07-29T09:52:54.344Z,101092.47
2022-07-29T09:55:21.604Z,101089.72
2022-07-29T09:57:49.118Z,101102.03
2022-07-29T10:00:23.932Z,101098.19
2022-07-29T10:02:51.654Z,101103.84
2022-07-29T10:05:36.748Z,101098.25
2022-07-29T10:08:04.629Z,101097.31
2022-07-29T10:10:40.243Z,101091.56
2022-07-29T10:13:16.505Z,101087.78
2022-07-29T10:15:47.200Z,101093.78
2022-07-29T10:18:18.337Z,101097.28
2022-07-29T10:20:46.452Z,101091.69
2022-07-29T10:23:13.624Z,101095.47
2022-07-29T10:25:45.897Z,101103.56
2022-07-29T10:28:16.464Z,101083.06
2022-07-29T10:30:46.892Z,101098.03
2022-07-29T10:34:00.129Z,101088.56
2022-07-29T10:37:19.434Z,101082.94
2022-07-29T10:40:42.193Z,101091.81
2022-07-29T10:43:29.788Z,101077.03
2022-07-29T10:46:01.652Z,101087.22
2022-07-29T10:48:28.983Z,101065.25
2022-07-29T10:51:04.935Z,101074.91
2022-07-29T10:53:54.102Z,101070.72
2022-07-29T10:56:34.580Z,101076.66
2022-07-29T10:59:21.454Z,101069.44
2022-07-29T11:01:54.398Z,101060.50
2022-07-29T11:04:44.578Z,101068.63
2022-07-29T11:07:13.178Z,101067.69
2022-07-29T11:09:42.319Z,101062.56
2022-07-29T11:12:39.256Z,101065.19
2022-07-29T11:15:20.084Z,101061.50
2022-07-29T11:18:15.307Z,101052.28
2022-07-29T11:20:51.105Z,101069.44
2022-07-29T11:23:36.812Z,101065.19
2022-07-29T11:26:23.154Z,101062.38
2022-07-29T11:29:15.364Z,101056.88
2022-07-29T11:31:52.618Z,101061.94
2022-07-29T11:34:30.717Z,101064.00
2022-07-29T11:37:27.701Z,101061.25
2022-07-29T11:40:02.203Z,101059.34
2022-07-29T11:42:34.179Z,101057.13
2022-07-29T11:45:43.524Z,101051.88
2022-07-29T11:48:28.432Z,101058.22
2022-07-29T11:50:54.433Z,101048.50
2022-07-29T11:53:22.713Z,101046.75
2022-07-29T11:55:59.150Z,101051.47
2022-07-29T11:58:27.226Z,101043.16
2022-07-29T12:00:55.348Z,101043.69
2022-07-29T12:03:33.516Z,101042.16
2022-07-29T12:06:14.305Z,101033.00
2022-07-29T12:08:51.504Z,101033.50
2022-07-29T12:11:22.481Z,101030.25
2022-07-29T12:13:52.515Z,101033.06
2022-07-29T12:16:25.819Z,101017.19
2022-07-29T12:19:02.050Z,101022.72
2022-07-29T12:21:56.651Z,101022.19
2022-07-29T12:24:28.192Z,101021.66
2022-07-29T12:27:00.498Z,101029.47
2022-07-29T12:29:35.531Z,101030.59
2022-07-29T12:32:14.289Z,101024.22
2022-07-29T12:34:45.222Z,101019.75
2022-07-29T12:37:21.395Z,101021.69
2022-07-29T12:40:13.567Z,101005.72
2022-07-29T12:42:41.844Z,101008.97
2022-07-29T12:45:09.453Z,101013.41
2022-07-29T12:47:53.528Z,101005.28
2022-07-29T12:50:25.894Z,101003.00
2022-07-29T12:53:12.037Z,100993.91
2022-07-29T12:55:54.374Z,100993.44
2022-07-29T12:58:51.110Z,101002.16
2022-07-29T13:01:21.710Z,101004.03
2022-07-29T13:04:05.140Z,100999.41
2022-07-29T13:06:41.913Z,100986.94
2022-07-29T13:09:24.667Z,100987.84
2022-07-29T13:11:54.383Z,100985.28
2022-07-29T13:14:49.706Z,100979.44
2022-07-29T13:17:24.094Z,100975.25
2022-07-29T13:23:29.761Z,100971.53
2022-07-29T13:26:13.042Z,100972.31
2022-07-29T13:28:47.494Z,100960.84
2022-07-29T13:31:14.645Z,100965.75
2022-07-29T13:33:41.754Z,100963.41
2022-07-29T13:36:12.138Z,100961.50
2022-07-29T13:38:39.643Z,100962.50
2022-07-29T13:41:07.213Z,100963.06
2022-07-29T13:43:34.182Z,100963.81
2022-07-29T13:46:01.249Z,100962.06
2022-07-29T13:48:28.457Z,100953.56
2022-07-29T13:50:57.971Z,100959.31
2022-07-29T13:53:28.839Z,100956.25
2022-07-29T13:55:56.371Z,100958.63
2022-07-29T13:58:23.458Z,100955.22
2022-07-29T14:00:50.661Z,100946.91
2022-07-29T14:03:17.843Z,100937.16
2022-07-29T14:05:44.969Z,100940.50
2022-07-29T14:08:12.043Z,100941.16
2022-07-29T14:10:39.150Z,100942.72
2022-07-29T14:13:06.150Z,100938.59
2022-07-29T14:15:51.797Z,100925.78
2022-07-29T14:18:19.151Z,100927.75
2022-07-29T14:20:46.327Z,100931.38
2022-07-29T14:23:13.511Z,100931.88
2022-07-29T14:25:43.330Z,100938.47
2022-07-29T14:28:15.182Z,100931.97
2022-07-29T14:30:44.217Z,100920.97
2022-07-29T14:33:32.216Z,100919.66
2022-07-29T14:36:00.902Z,100917.94
2022-07-29T14:38:28.522Z,100918.09
2022-07-29T14:40:55.667Z,100923.19
2022-07-29T14:43:31.863Z,100927.31
2022-07-29T14:46:03.004Z,100916.56
2022-07-29T14:48:34.290Z,100905.94
2022-07-29T14:51:04.711Z,100912.34
2022-07-29T14:53:33.042Z,100917.38
2022-07-29T14:56:15.324Z,100913.75
2022-07-29T14:58:59.083Z,100913.56
2022-07-29T15:01:29.679Z,100915.47
2022-07-29T15:04:00.034Z,100919.19
2022-07-29T15:06:28.571Z,100909.91
2022-07-29T15:08:55.793Z,100916.00
2022-07-29T15:11:22.798Z,100908.88
2022-07-29T15:13:49.835Z,100916.16
2022-07-29T15:16:22.529Z,100912.03
2022-07-29T15:18:55.266Z,100901.91
2022-07-29T15:21:22.671Z,100902.38
2022-07-29T15:23:49.910Z,100895.41
2022-07-29T15:26:17.613Z,100901.75
2022-07-29T15:28:46.167Z,100900.72
2022-07-29T15:31:16.326Z,100892.16
2022-07-29T15:33:43.387Z,100899.31
2022-07-29T15:36:25.417Z,100901.22
2022-07-29T15:39:01.793Z,100902.63
2022-07-29T15:41:32.174Z,100897.97
2022-07-29T15:44:02.144Z,100897.97
2022-07-29T15:46:47.613Z,100906.25
2022-07-29T15:49:14.821Z,100904.34
2022-07-29T15:51:42.170Z,100905.16
2022-07-29T15:54:09.258Z,100897.88
2022-07-29T15:56:51.050Z,100896.75
2022-07-29T15:59:22.596Z,100902.94
2022-07-29T16:01:50.144Z,100903.31
2022-07-29T16:04:17.833Z,100896.56
2022-07-29T16:06:47.562Z,100888.78
2022-07-29T16:09:16.634Z,100888.13
2022-07-29T16:11:44.248Z,100882.31
2022-07-29T16:14:15.543Z,100891.63
2022-07-29T16:16:42.642Z,100883.41
2022-07-29T16:19:13.186Z,100887.19
2022-07-29T16:21:43.628Z,100879.88
2022-07-29T16:24:16.397Z,100870.59
2022-07-29T16:26:43.406Z,100875.72
2022-07-29T16:29:10.457Z,100874.03
2022-07-29T16:31:37.630Z,100876.63
2022-07-29T16:34:04.666Z,100871.66
2022-07-29T16:36:34.691Z,100866.81
2022-07-29T16:39:02.118Z,100857.31
2022-07-29T16:41:31.964Z,100863.84
2022-07-29T16:44:38.549Z,100863.53
2022-07-29T16:46:59.964Z,100858.88
2022-07-29T16:49:47.149Z,100863.34
2022-07-29T16:52:14.173Z,100851.75
2022-07-29T16:54:44.056Z,100857.13
2022-07-29T16:57:14.784Z,100854.09
2022-07-29T16:59:51.426Z,100851.19
2022-07-29T17:02:29.394Z,100845.81
2022-07-29T17:04:57.093Z,100845.72
2022-07-29T17:08:01.329Z,100858.09
2022-07-29T17:10:52.048Z,100849.13
2022-07-29T17:13:22.305Z,100844.91
2022-07-29T17:15:49.496Z,100848.09
2022-07-29T17:18:31.150Z,100854.28
2022-07-29T17:20:58.143Z,100856.91
2022-07-29T17:23:26.850Z,100856.31
2022-07-29T17:25:53.942Z,100862.84
2022-07-29T17:28:23.677Z,100859.28
2022-07-29T17:30:56.901Z,100855.19
2022-07-29T17:33:46.941Z,100861.28
2022-07-29T17:36:33.653Z,100855.91
2022-07-29T17:39:08.034Z,100855.19
2022-07-29T17:42:00.609Z,100862.50
2022-07-29T17:44:30.610Z,100865.41
2022-07-29T17:46:57.980Z,100868.72
2022-07-29T17:49:25.825Z,100863.38
2022-07-29T17:51:56.448Z,100863.53
2022-07-29T17:55:10.416Z,100860.03
2022-07-29T17:57:37.718Z,100864.13
2022-07-29T18:01:12.390Z,100858.19
2022-07-29T18:03:55.235Z,100863.63
2022-07-29T18:06:36.071Z,100870.09
2022-07-29T18:09:05.744Z,100868.31
2022-07-29T18:12:10.132Z,100869.47
2022-07-29T18:17:57.658Z,100870.38
2022-07-29T18:20:28.558Z,100866.78
2022-07-29T18:22:55.859Z,100876.69
2022-07-29T18:26:15.104Z,100875.94
2022-07-29T18:28:42.203Z,100873.97
2022-07-29T18:31:15.919Z,100878.50
2022-07-29T18:33:52.113Z,100884.59
2022-07-29T18:36:19.505Z,100887.94
2022-07-29T18:39:49.575Z,100897.69
2022-07-29T18:42:50.351Z,100894.19
2022-07-29T18:45:22.183Z,100894.97
2022-07-29T18:47:59.737Z,100889.47
2022-07-29T18:51:09.408Z,100890.00
2022-07-29T18:54:33.012Z,100886.75
2022-07-29T18:57:55.247Z,100889.59
2022-07-29T19:00:06.575Z,100888.94
2022-07-29T19:07:05.798Z,100897.59
2022-07-29T19:10:11.401Z,100898.81
2022-07-29T19:13:20.769Z,100902.06
2022-07-29T19:19:54.260Z,100914.28
2022-07-29T19:25:55.253Z,100927.59
2022-07-29T19:29:17.873Z,100929.53
2022-07-29T19:32:24.667Z,100931.41
2022-07-29T19:35:24.278Z,100941.09
2022-07-29T19:38:39.420Z,100935.28
2022-07-29T19:42:44.656Z,100935.50
2022-07-29T19:45:33.784Z,100927.91
2022-07-29T19:55:31.319Z,100927.81
2022-07-29T19:58:41.263Z,100932.97
2022-07-29T20:01:46.338Z,100929.63
2022-07-29T20:04:17.084Z,100938.19
2022-07-29T20:06:44.505Z,100943.22
2022-07-29T20:09:17.082Z,100932.47
2022-07-29T20:11:51.086Z,100932.44
2022-07-29T20:14:52.751Z,100937.09
2022-07-29T20:17:27.149Z,100934.19
2022-07-29T20:20:13.262Z,100934.56
2022-07-29T20:23:05.435Z,100933.28
2022-07-29T20:29:09.147Z,100936.25
2022-07-29T20:35:31.687Z,100937.00
2022-07-29T20:43:10.149Z,100943.16
2022-07-29T20:46:25.045Z,100944.81
2022-07-29T20:49:22.618Z,100937.34
2022-07-29T20:52:49.832Z,100941.47
2022-07-29T20:55:29.049Z,100946.69
2022-07-29T20:59:19.523Z,100954.94
2022-07-29T21:01:47.307Z,100946.56
2022-07-29T21:09:46.460Z,100948.94
2022-07-29T21:20:26.607Z,100950.94
2022-07-29T21:26:26.855Z,100950.22
2022-07-29T21:33:20.959Z,100963.22
2022-07-29T21:48:02.679Z,100955.94
2022-07-29T21:50:29.729Z,100962.13
2022-07-29T21:55:56.283Z,100963.59
2022-07-29T22:15:28.214Z,100949.88
2022-07-29T22:57:27.037Z,100935.19
2022-07-29T23:01:37.746Z,100915.47
2022-07-29T23:09:14.964Z,100915.25
